createdAt,value
2023-05-05T00:01:03.844Z,102298.22
2023-05-05T00:03:34.774Z,102299.94
2023-05-05T00:06:05.705Z,102302.63
2023-05-05T00:08:36.900Z,102300.88
2023-05-05T00:11:07.091Z,102306.22
2023-05-05T00:13:37.118Z,102300.97
2023-05-05T00:16:07.364Z,102302.75
2023-05-05T00:18:37.788Z,102307.03
2023-05-05T00:21:07.844Z,102304.41
2023-05-05T00:23:38.990Z,102302.66
2023-05-05T00:26:08.937Z,102301.72
2023-05-05T00:28:38.578Z,102307.94
2023-05-05T00:31:08.926Z,102305.38
2023-05-05T00:33:38.573Z,102303.56
2023-05-05T00:36:10.096Z,102307.16
2023-05-05T00:38:41.064Z,102307.16
2023-05-05T00:41:11.455Z,102318.59
2023-05-05T00:43:41.294Z,102314.19
2023-05-05T00:46:13.438Z,102318.59
2023-05-05T00:48:43.086Z,102315.84
2023-05-05T00:51:13.207Z,102315.91
2023-05-05T00:53:45.487Z,102313.22
2023-05-05T00:56:15.925Z,102318.56
2023-05-05T00:58:45.736Z,102319.34
2023-05-05T01:01:16.875Z,102317.56
2023-05-05T01:03:47.315Z,102311.41
2023-05-05T01:06:26.929Z,102305.97
2023-05-05T01:09:04.656Z,102316.53
2023-05-05T01:11:40.285Z,102311.16
2023-05-05T01:14:14.117Z,102322.53
2023-05-05T01:16:51.274Z,102324.28
2023-05-05T01:19:31.283Z,102313.91
2023-05-05T01:22:04.273Z,102327.03
2023-05-05T01:24:51.721Z,102322.69
2023-05-05T01:27:49.661Z,102331.31
2023-05-05T01:30:30.725Z,102324.09
2023-05-05T01:33:05.526Z,102317.16
2023-05-05T01:35:38.067Z,102321.38
2023-05-05T01:38:11.186Z,102323.06
2023-05-05T01:40:45.096Z,102322.88
2023-05-05T01:43:17.049Z,102315.81
2023-05-05T01:45:48.163Z,102319.50
2023-05-05T01:48:21.237Z,102312.41
2023-05-05T01:50:52.476Z,102314.16
2023-05-05T01:53:24.255Z,102318.59
2023-05-05T01:55:55.414Z,102320.31
2023-05-05T01:58:26.117Z,102315.75
2023-05-05T02:00:58.376Z,102315.75
2023-05-05T02:03:30.709Z,102318.38
2023-05-05T02:06:02.400Z,102313.00
2023-05-05T02:08:33.134Z,102311.22
2023-05-05T02:11:02.983Z,102314.72
2023-05-05T02:13:34.105Z,102311.94
2023-05-05T02:16:04.653Z,102317.00
2023-05-05T02:18:37.144Z,102314.34
2023-05-05T02:21:07.056Z,102309.97
2023-05-05T02:23:37.859Z,102308.16
2023-05-05T02:26:08.880Z,102313.47
2023-05-05T02:28:42.433Z,102309.09
2023-05-05T02:31:13.845Z,102313.56
2023-05-05T02:33:47.389Z,102310.06
2023-05-05T02:36:19.407Z,102310.84
2023-05-05T02:39:03.648Z,102315.25
2023-05-05T02:41:40.221Z,102320.47
2023-05-05T02:44:23.001Z,102322.06
2023-05-05T02:46:53.034Z,102316.59
2023-05-05T02:49:25.129Z,102311.22
2023-05-05T02:52:00.319Z,102319.97
2023-05-05T02:54:35.148Z,102325.00
2023-05-05T02:57:12.309Z,102328.44
2023-05-05T02:59:47.859Z,102335.38
2023-05-05T03:02:23.903Z,102329.16
2023-05-05T03:04:57.938Z,102324.75
2023-05-05T03:07:32.610Z,102327.22
2023-05-05T03:10:08.300Z,102319.16
2023-05-05T03:12:46.859Z,102333.16
2023-05-05T03:15:27.893Z,102338.41
2023-05-05T03:17:58.386Z,102336.53
2023-05-05T03:20:30.681Z,102338.09
2023-05-05T03:23:05.769Z,102353.78
2023-05-05T03:25:45.908Z,102342.22
2023-05-05T03:28:23.883Z,102346.56
2023-05-05T03:30:54.210Z,102351.53
2023-05-05T03:33:24.421Z,102352.50
2023-05-05T03:35:56.317Z,102356.75
2023-05-05T03:38:26.422Z,102356.75
2023-05-05T03:40:57.661Z,102363.56
2023-05-05T03:43:29.456Z,102367.94
2023-05-05T03:45:59.695Z,102365.34
2023-05-05T03:48:29.628Z,102372.41
2023-05-05T03:51:01.245Z,102373.22
2023-05-05T03:53:33.689Z,102374.00
2023-05-05T03:56:06.806Z,102379.28
2023-05-05T03:58:36.547Z,102383.84
2023-05-05T04:01:06.572Z,102387.78
2023-05-05T04:03:36.306Z,102382.00
2023-05-05T04:06:08.130Z,102381.19
2023-05-05T04:08:37.902Z,102384.25
2023-05-05T04:11:08.477Z,102385.19
2023-05-05T04:13:39.422Z,102390.06
2023-05-05T04:16:10.455Z,102393.31
2023-05-05T04:18:41.063Z,102384.03
2023-05-05T04:21:12.587Z,102394.34
2023-05-05T04:23:43.003Z,102395.50
2023-05-05T04:26:14.125Z,102392.69
2023-05-05T04:28:43.908Z,102398.06
2023-05-05T04:31:14.489Z,102393.75
2023-05-05T04:33:45.957Z,102400.94
2023-05-05T04:36:19.413Z,102402.97
2023-05-05T04:38:50.336Z,102411.38
2023-05-05T04:41:20.715Z,102414.66
2023-05-05T04:43:50.586Z,102419.78
2023-05-05T04:46:20.771Z,102417.69
2023-05-05T04:48:50.742Z,102417.69
2023-05-05T04:51:23.083Z,102418.13
2023-05-05T04:53:53.493Z,102420.13
2023-05-05T04:56:23.581Z,102416.69
2023-05-05T04:58:53.717Z,102424.00
2023-05-05T05:01:24.039Z,102423.88
2023-05-05T05:03:54.156Z,102435.69
2023-05-05T05:06:25.943Z,102431.31
2023-05-05T05:08:55.612Z,102435.97
2023-05-05T05:11:25.864Z,102432.84
2023-05-05T05:13:55.851Z,102441.72
2023-05-05T05:16:26.390Z,102438.66
2023-05-05T05:18:56.134Z,102447.53
2023-05-05T05:21:27.978Z,102439.88
2023-05-05T05:23:58.386Z,102444.88
2023-05-05T05:26:29.584Z,102446.06
2023-05-05T05:28:59.451Z,102445.97
2023-05-05T05:31:29.685Z,102458.72
2023-05-05T05:33:59.931Z,102454.88
2023-05-05T05:36:32.110Z,102457.50
2023-05-05T05:39:01.828Z,102455.84
2023-05-05T05:41:32.151Z,102461.50
2023-05-05T05:44:02.211Z,102457.97
2023-05-05T05:46:32.859Z,102462.56
2023-05-05T05:49:02.769Z,102457.03
2023-05-05T05:51:34.631Z,102457.56
2023-05-05T05:54:04.846Z,102467.25
2023-05-05T05:56:35.272Z,102465.94
2023-05-05T05:59:08.345Z,102459.41
2023-05-05T06:01:38.689Z,102457.97
2023-05-05T06:04:08.524Z,102467.84
2023-05-05T06:06:42.279Z,102462.50
2023-05-05T06:09:12.024Z,102464.25
2023-05-05T06:11:42.366Z,102462.44
2023-05-05T06:14:12.137Z,102461.94
2023-05-05T06:16:42.281Z,102470.25
2023-05-05T06:19:15.478Z,102462.59
2023-05-05T06:21:47.869Z,102470.34
2023-05-05T06:24:17.769Z,102475.25
2023-05-05T06:26:47.908Z,102481.09
2023-05-05T06:29:17.529Z,102480.78
2023-05-05T06:31:47.754Z,102471.34
2023-05-05T06:34:17.577Z,102478.81
2023-05-05T06:36:49.095Z,102490.31
2023-05-05T06:39:18.937Z,102487.47
2023-05-05T06:41:48.927Z,102483.88
2023-05-05T06:44:19.659Z,102479.63
2023-05-05T06:46:51.509Z,102478.31
2023-05-05T06:49:21.238Z,102487.66
2023-05-05T06:51:53.099Z,102485.25
2023-05-05T06:54:22.919Z,102492.56
2023-05-05T06:56:53.266Z,102484.78
2023-05-05T06:59:23.203Z,102497.03
2023-05-05T07:01:53.370Z,102492.38
2023-05-05T07:04:23.299Z,102493.41
2023-05-05T07:06:55.588Z,102495.88
2023-05-05T07:09:25.480Z,102497.25
2023-05-05T07:11:55.800Z,102489.34
2023-05-05T07:14:25.515Z,102493.25
2023-05-05T07:16:55.734Z,102487.84
2023-05-05T07:19:25.442Z,102490.88
2023-05-05T07:21:56.994Z,102492.22
2023-05-05T07:24:26.637Z,102484.88
2023-05-05T07:26:56.745Z,102499.50
2023-05-05T07:29:26.570Z,102497.81
2023-05-05T07:31:56.680Z,102484.53
2023-05-05T07:34:26.719Z,102496.31
2023-05-05T07:36:58.277Z,102492.06
2023-05-05T07:39:28.041Z,102494.03
2023-05-05T07:41:58.102Z,102495.00
2023-05-05T07:44:28.250Z,102504.84
2023-05-05T07:46:58.412Z,102499.50
2023-05-05T07:49:28.340Z,102505.00
2023-05-05T07:51:59.788Z,102506.22
2023-05-05T07:54:29.799Z,102502.34
2023-05-05T07:57:00.051Z,102515.06
2023-05-05T07:59:29.748Z,102503.38
2023-05-05T08:01:59.843Z,102507.50
2023-05-05T08:04:29.636Z,102510.13
2023-05-05T08:07:01.416Z,102521.16
2023-05-05T08:09:31.283Z,102515.09
2023-05-05T08:12:01.818Z,102526.28
2023-05-05T08:14:31.771Z,102520.38
2023-05-05T08:17:02.029Z,102524.41
2023-05-05T08:19:31.832Z,102520.09
2023-05-05T08:22:03.506Z,102516.09
2023-05-05T08:24:33.092Z,102510.16
2023-05-05T08:27:03.980Z,102520.34
2023-05-05T08:29:33.709Z,102515.13
2023-05-05T08:32:03.947Z,102528.75
2023-05-05T08:34:33.647Z,102510.59
2023-05-05T08:37:05.455Z,102523.25
2023-05-05T08:39:35.154Z,102530.31
2023-05-05T08:42:05.432Z,102521.00
2023-05-05T08:44:35.392Z,102519.69
2023-05-05T08:47:06.135Z,102521.66
2023-05-05T08:49:41.951Z,102517.19
2023-05-05T08:52:15.630Z,102512.50
2023-05-05T08:54:51.618Z,102522.63
2023-05-05T08:57:27.920Z,102523.72
2023-05-05T08:59:59.138Z,102527.75
2023-05-05T09:02:30.553Z,102515.91
2023-05-05T09:05:05.463Z,102523.75
2023-05-05T09:07:37.904Z,102524.88
2023-05-05T09:10:09.779Z,102531.78
2023-05-05T09:12:41.547Z,102537.00
2023-05-05T09:15:11.967Z,102527.69
2023-05-05T09:17:42.590Z,102530.44
2023-05-05T09:20:12.975Z,102536.72
2023-05-05T09:22:46.086Z,102536.47
2023-05-05T09:25:16.579Z,102533.00
2023-05-05T09:27:47.382Z,102537.59
2023-05-05T09:30:18.059Z,102540.13
2023-05-05T09:32:50.257Z,102544.75
2023-05-05T09:35:21.004Z,102545.91
2023-05-05T09:37:52.635Z,102548.28
2023-05-05T09:40:24.285Z,102554.50
2023-05-05T09:43:02.866Z,102554.13
2023-05-05T09:45:32.571Z,102549.06
2023-05-05T09:48:02.643Z,102550.56
2023-05-05T09:50:32.872Z,102552.22
2023-05-05T09:53:04.779Z,102563.22
2023-05-05T09:55:36.414Z,102551.41
2023-05-05T09:58:20.061Z,102551.56
2023-05-05T10:00:50.050Z,102562.34
2023-05-05T10:03:20.336Z,102557.84
2023-05-05T10:05:50.775Z,102553.34
2023-05-05T10:08:23.375Z,102558.81
2023-05-05T10:10:53.898Z,102554.72
2023-05-05T10:13:25.374Z,102559.66
2023-05-05T10:15:56.132Z,102557.63
2023-05-05T10:18:26.799Z,102554.38
2023-05-05T10:20:59.699Z,102562.47
2023-05-05T10:23:36.208Z,102547.56
2023-05-05T10:26:07.979Z,102552.97
2023-05-05T10:28:43.162Z,102555.75
2023-05-05T10:31:25.186Z,102553.28
2023-05-05T10:34:00.570Z,102564.06
2023-05-05T10:36:32.072Z,102549.25
2023-05-05T10:39:06.990Z,102550.81
2023-05-05T10:41:36.724Z,102541.47
2023-05-05T10:44:07.832Z,102550.16
2023-05-05T10:46:37.928Z,102540.88
2023-05-05T10:49:13.440Z,102556.72
2023-05-05T10:51:49.022Z,102554.97
2023-05-05T10:54:24.763Z,102556.53
2023-05-05T10:56:54.866Z,102542.38
2023-05-05T10:59:52.283Z,102549.63
2023-05-05T11:02:23.370Z,102540.09
2023-05-05T11:05:15.351Z,102535.66
2023-05-05T11:07:46.530Z,102540.19
2023-05-05T11:10:19.978Z,102530.00
2023-05-05T11:13:08.125Z,102539.13
2023-05-05T11:15:41.812Z,102535.81
2023-05-05T11:18:29.600Z,102537.53
2023-05-05T11:21:04.350Z,102547.56
2023-05-05T11:23:34.153Z,102538.38
2023-05-05T11:26:06.231Z,102526.19
2023-05-05T11:28:35.921Z,102527.78
2023-05-05T11:31:19.027Z,102533.38
2023-05-05T11:33:49.313Z,102526.97
2023-05-05T11:36:20.212Z,102532.13
2023-05-05T11:39:07.511Z,102531.13
2023-05-05T11:41:46.859Z,102530.19
2023-05-05T11:44:17.361Z,102531.81
2023-05-05T11:47:02.212Z,102522.16
2023-05-05T11:49:32.484Z,102534.38
2023-05-05T11:52:03.358Z,102538.53
2023-05-05T11:54:33.826Z,102524.13
2023-05-05T11:57:07.527Z,102525.38
2023-05-05T11:59:38.156Z,102528.97
2023-05-05T12:02:08.250Z,102515.06
2023-05-05T12:04:41.099Z,102519.97
2023-05-05T12:07:16.099Z,102524.94
2023-05-05T12:09:46.495Z,102525.47
2023-05-05T12:12:18.189Z,102532.75
2023-05-05T12:14:50.598Z,102525.91
2023-05-05T12:17:21.617Z,102523.44
2023-05-05T12:19:52.723Z,102520.84
2023-05-05T12:22:23.737Z,102518.69
2023-05-05T12:25:00.367Z,102520.13
2023-05-05T12:27:31.892Z,102518.69
2023-05-05T12:30:12.728Z,102523.31
2023-05-05T12:32:42.816Z,102527.97
2023-05-05T12:35:13.273Z,102520.97
2023-05-05T12:37:44.115Z,102518.31
2023-05-05T12:40:31.983Z,102522.78
2023-05-05T12:43:04.318Z,102508.41
2023-05-05T12:45:34.062Z,102511.31
2023-05-05T12:48:04.218Z,102511.13
2023-05-05T12:50:34.318Z,102515.72
2023-05-05T12:53:04.277Z,102520.53
2023-05-05T12:55:37.377Z,102516.22
2023-05-05T12:58:08.984Z,102522.34
2023-05-05T13:00:38.723Z,102511.53
2023-05-05T13:03:10.752Z,102523.53
2023-05-05T13:05:41.523Z,102507.91
2023-05-05T13:08:12.441Z,102505.09
2023-05-05T13:10:57.171Z,102511.19
2023-05-05T13:13:29.335Z,102510.19
2023-05-05T13:15:59.015Z,102502.81
2023-05-05T13:18:29.113Z,102504.38
2023-05-05T13:20:59.167Z,102504.56
2023-05-05T13:23:29.329Z,102511.22
2023-05-05T13:25:59.104Z,102497.66
2023-05-05T13:28:32.703Z,102501.78
2023-05-05T13:31:02.442Z,102508.03
2023-05-05T13:33:34.554Z,102485.84
2023-05-05T13:36:04.749Z,102493.47
2023-05-05T13:38:34.939Z,102496.31
2023-05-05T13:41:04.934Z,102487.78
2023-05-05T13:43:36.924Z,102485.16
2023-05-05T13:46:19.184Z,102476.41
2023-05-05T13:48:56.006Z,102475.66
2023-05-05T13:51:26.727Z,102478.19
2023-05-05T13:53:57.030Z,102478.34
2023-05-05T13:56:28.062Z,102484.63
2023-05-05T13:58:59.979Z,102467.72
2023-05-05T14:01:29.931Z,102459.59
2023-05-05T14:04:02.809Z,102467.06
2023-05-05T14:06:34.457Z,102470.28
2023-05-05T14:09:06.562Z,102478.88
2023-05-05T14:11:36.569Z,102472.94
2023-05-05T14:14:08.194Z,102475.91
2023-05-05T14:16:37.939Z,102469.72
2023-05-05T14:19:08.031Z,102477.84
2023-05-05T14:21:37.741Z,102461.41
2023-05-05T14:24:08.087Z,102461.81
2023-05-05T14:26:37.800Z,102459.94
2023-05-05T14:29:09.324Z,102458.31
2023-05-05T14:31:39.281Z,102462.50
2023-05-05T14:34:09.465Z,102460.72
2023-05-05T14:36:39.306Z,102461.78
2023-05-05T14:39:09.210Z,102464.84
2023-05-05T14:41:38.961Z,102472.09
2023-05-05T14:44:10.726Z,102471.06
2023-05-05T14:46:40.714Z,102474.03
2023-05-05T14:49:11.390Z,102469.72
2023-05-05T14:51:42.456Z,102461.97
2023-05-05T14:54:26.886Z,102468.69
2023-05-05T14:57:01.033Z,102466.16
2023-05-05T14:59:33.181Z,102466.00
2023-05-05T15:02:03.655Z,102459.16
2023-05-05T15:04:33.792Z,102461.66
2023-05-05T15:07:04.483Z,102465.00
2023-05-05T15:09:34.540Z,102465.72
2023-05-05T15:12:04.316Z,102462.38
2023-05-05T15:14:37.022Z,102466.50
2023-05-05T15:17:06.933Z,102472.59
2023-05-05T15:19:37.918Z,102470.72
2023-05-05T15:22:07.600Z,102418.22
2023-05-05T15:24:37.681Z,102458.69
2023-05-05T15:27:08.325Z,102461.81
2023-05-05T15:29:41.431Z,102462.06
2023-05-05T15:32:11.807Z,102460.50
2023-05-05T15:34:42.468Z,102460.72
2023-05-05T15:37:13.194Z,102456.34
2023-05-05T15:39:43.300Z,102457.66
2023-05-05T15:42:14.390Z,102455.72
2023-05-05T15:44:46.170Z,102446.97
2023-05-05T15:47:15.914Z,102458.78
2023-05-05T15:49:46.158Z,102451.00
2023-05-05T15:52:15.709Z,102451.94
2023-05-05T15:54:46.139Z,102453.78
2023-05-05T15:57:15.882Z,102448.69
2023-05-05T15:59:47.460Z,102448.00
2023-05-05T16:02:17.166Z,102450.06
2023-05-05T16:04:48.502Z,102443.59
2023-05-05T16:07:18.618Z,102447.47
2023-05-05T16:09:48.808Z,102444.66
2023-05-05T16:12:21.140Z,102448.53
2023-05-05T16:14:53.560Z,102451.75
2023-05-05T16:17:23.489Z,102443.38
2023-05-05T16:19:53.735Z,102450.19
2023-05-05T16:22:24.548Z,102446.81
2023-05-05T16:24:55.068Z,102455.34
2023-05-05T16:27:24.935Z,102457.25
2023-05-05T16:29:59.564Z,102450.78
2023-05-05T16:32:29.738Z,102456.78
2023-05-05T16:35:00.134Z,102443.22
2023-05-05T16:37:30.089Z,102451.31
2023-05-05T16:40:01.618Z,102441.56
2023-05-05T16:42:31.763Z,102439.69
2023-05-05T16:45:03.724Z,102436.28
2023-05-05T16:47:33.682Z,102425.81
2023-05-05T16:50:04.381Z,102430.38
2023-05-05T16:52:34.199Z,102439.19
2023-05-05T16:55:05.208Z,102437.50
2023-05-05T16:57:35.239Z,102437.50
2023-05-05T17:00:09.578Z,102435.63
2023-05-05T17:02:39.554Z,102429.41
2023-05-05T17:05:10.420Z,102427.00
2023-05-05T17:07:40.318Z,102438.22
2023-05-05T17:10:11.357Z,102430.75
2023-05-05T17:12:41.352Z,102433.94
2023-05-05T17:15:13.457Z,102432.97
2023-05-05T17:17:43.735Z,102424.72
2023-05-05T17:20:14.767Z,102420.19
2023-05-05T17:22:46.758Z,102427.00
2023-05-05T17:25:16.909Z,102420.91
2023-05-05T17:27:46.654Z,102420.84
2023-05-05T17:30:21.629Z,102429.25
2023-05-05T17:32:51.512Z,102433.75
2023-05-05T17:35:22.034Z,102431.00
2023-05-05T17:37:52.993Z,102429.22
2023-05-05T17:40:25.963Z,102424.09
2023-05-05T17:42:57.080Z,102429.41
2023-05-05T17:45:29.990Z,102421.19
2023-05-05T17:48:00.209Z,102435.97
2023-05-05T17:50:35.825Z,102425.44
2023-05-05T17:53:05.760Z,102433.38
2023-05-05T17:55:36.009Z,102435.06
2023-05-05T17:58:06.992Z,102433.94
2023-05-05T18:00:41.093Z,102431.16
2023-05-05T18:03:12.511Z,102439.22
2023-05-05T18:05:43.082Z,102435.41
2023-05-05T18:08:16.811Z,102440.56
2023-05-05T18:10:49.081Z,102433.41
2023-05-05T18:13:20.375Z,102436.75
2023-05-05T18:15:54.529Z,102448.03
2023-05-05T18:18:26.571Z,102442.44
2023-05-05T18:20:57.897Z,102445.91
2023-05-05T18:23:27.702Z,102442.50
2023-05-05T18:26:01.618Z,102439.03
2023-05-05T18:28:33.348Z,102445.91
2023-05-05T18:31:06.671Z,102450.41
2023-05-05T18:33:39.746Z,102447.78
2023-05-05T18:36:13.460Z,102443.25
2023-05-05T18:38:47.269Z,102436.06
2023-05-05T18:41:18.389Z,102450.97
2023-05-05T18:43:51.016Z,102444.59
2023-05-05T18:46:27.309Z,102440.84
2023-05-05T18:49:03.752Z,102443.59
2023-05-05T18:51:37.670Z,102437.31
2023-05-05T18:54:09.798Z,102439.16
2023-05-05T18:56:45.517Z,102441.59
2023-05-05T18:59:20.462Z,102442.41
2023-05-05T19:01:56.716Z,102441.25
2023-05-05T19:04:31.577Z,102439.63
2023-05-05T19:07:04.440Z,102440.47
2023-05-05T19:09:42.165Z,102438.56
2023-05-05T19:12:17.017Z,102439.56
2023-05-05T19:14:48.740Z,102431.63
2023-05-05T19:17:45.213Z,102427.16
2023-05-05T19:20:32.861Z,102421.63
2023-05-05T19:23:11.750Z,102421.75
2023-05-05T19:25:50.593Z,102420.00
2023-05-05T19:28:29.524Z,102426.00
2023-05-05T19:31:01.539Z,102430.44
2023-05-05T19:33:34.831Z,102432.88
2023-05-05T19:36:09.650Z,102418.63
2023-05-05T19:38:45.452Z,102430.09
2023-05-05T19:41:18.654Z,102436.53
2023-05-05T19:43:50.275Z,102425.19
2023-05-05T19:46:21.121Z,102427.88
2023-05-05T19:48:54.438Z,102421.88
2023-05-05T19:51:24.128Z,102426.34
2023-05-05T19:53:54.413Z,102424.78
2023-05-05T19:56:24.428Z,102428.22
2023-05-05T19:58:56.755Z,102428.13
2023-05-05T20:01:26.674Z,102437.00
2023-05-05T20:03:58.496Z,102443.25
2023-05-05T20:06:28.527Z,102431.88
2023-05-05T20:08:58.614Z,102433.63
2023-05-05T20:11:28.635Z,102434.44
2023-05-05T20:13:59.057Z,102433.47
2023-05-05T20:16:28.897Z,102435.16
2023-05-05T20:19:00.508Z,102441.31
2023-05-05T20:21:34.118Z,102439.47
2023-05-05T20:24:05.209Z,102446.28
2023-05-05T20:26:36.066Z,102434.88
2023-05-05T20:29:06.819Z,102439.25
2023-05-05T20:31:36.732Z,102437.34
2023-05-05T20:34:08.261Z,102431.13
2023-05-05T20:36:37.963Z,102432.88
2023-05-05T20:39:08.424Z,102437.22
2023-05-05T20:41:41.281Z,102432.72
2023-05-05T20:44:16.570Z,102425.59
2023-05-05T20:46:47.835Z,102422.97
2023-05-05T20:49:19.699Z,102418.63
2023-05-05T20:51:49.419Z,102415.78
2023-05-05T20:54:20.552Z,102419.16
2023-05-05T20:56:51.632Z,102407.59
2023-05-05T20:59:22.911Z,102403.19
2023-05-05T21:01:52.735Z,102404.13
2023-05-05T21:04:24.698Z,102402.53
2023-05-05T21:06:54.316Z,102407.78
2023-05-05T21:09:24.982Z,102400.59
2023-05-05T21:11:54.921Z,102417.28
2023-05-05T21:14:25.122Z,102405.78
2023-05-05T21:16:54.912Z,102404.03
2023-05-05T21:19:26.350Z,102402.34
2023-05-05T21:21:59.385Z,102396.22
2023-05-05T21:24:29.637Z,102399.75
2023-05-05T21:26:59.558Z,102404.25
2023-05-05T21:29:29.593Z,102397.13
2023-05-05T21:31:59.537Z,102405.78
2023-05-05T21:34:31.008Z,102409.44
2023-05-05T21:37:00.943Z,102401.50
2023-05-05T21:39:32.707Z,102403.19
2023-05-05T21:42:02.888Z,102405.06
2023-05-05T21:44:33.262Z,102402.44
2023-05-05T21:47:02.863Z,102397.06
2023-05-05T21:49:34.420Z,102393.31
2023-05-05T21:52:04.470Z,102396.81
2023-05-05T21:54:34.440Z,102388.06
2023-05-05T21:57:04.353Z,102388.13
2023-05-05T21:59:34.393Z,102377.53
2023-05-05T22:02:04.021Z,102377.44
2023-05-05T22:04:35.601Z,102380.97
2023-05-05T22:07:05.384Z,102382.13
2023-05-05T22:09:35.799Z,102387.03
2023-05-05T22:12:05.722Z,102382.53
2023-05-05T22:14:35.757Z,102378.88
2023-05-05T22:17:05.377Z,102372.91
2023-05-05T22:19:37.365Z,102386.91
2023-05-05T22:22:07.249Z,102391.03
2023-05-05T22:24:37.216Z,102390.94
2023-05-05T22:27:06.949Z,102397.06
2023-05-05T22:29:37.111Z,102397.72
2023-05-05T22:32:06.815Z,102389.78
2023-05-05T22:34:38.428Z,102382.03
2023-05-05T22:37:08.038Z,102389.44
2023-05-05T22:39:39.112Z,102391.56
2023-05-05T22:42:08.727Z,102387.91
2023-05-05T22:44:40.093Z,102391.91
2023-05-05T22:47:09.863Z,102385.31
2023-05-05T22:49:41.613Z,102382.06
2023-05-05T22:52:11.331Z,102386.72
2023-05-05T22:54:41.343Z,102381.84
2023-05-05T22:57:11.188Z,102376.25
2023-05-05T22:59:41.549Z,102370.69
2023-05-05T23:02:11.216Z,102368.47
2023-05-05T23:04:42.784Z,102369.00
2023-05-05T23:07:13.705Z,102366.19
2023-05-05T23:09:45.005Z,102366.81
2023-05-05T23:12:21.526Z,102366.28
2023-05-05T23:14:51.812Z,102360.75
2023-05-05T23:17:21.462Z,102361.47
2023-05-05T23:19:53.134Z,102356.09
2023-05-05T23:22:22.904Z,102356.84
2023-05-05T23:24:52.950Z,102365.06
2023-05-05T23:27:23.310Z,102358.44
2023-05-05T23:29:53.364Z,102349.41
2023-05-05T23:32:23.049Z,102358.66
2023-05-05T23:34:54.531Z,102295.97
2023-05-05T23:37:25.768Z,102339.91
2023-05-05T23:39:55.790Z,102338.19
2023-05-05T23:42:25.715Z,102336.78
2023-05-05T23:44:55.724Z,102333.06
2023-05-05T23:47:25.392Z,102331.22
2023-05-05T23:49:56.841Z,102339.94
2023-05-05T23:52:26.450Z,102333.41
2023-05-05T23:54:56.497Z,102338.47
2023-05-05T23:57:26.564Z,102339.44
2023-05-05T23:59:56.650Z,102333.50
